• Join FlightAware (Why Join?)
  • Login
  • US Flag 
03:57AM EDT


 

Airport Tracker/Info


-or-


 

Live Flight TrackerFlight Track Log ✈ THY9 ✈ 27-Apr-2013 ✈ LTBA / IST - KLAX

Flight Track Log - Related Links

Times and Time Zones

All times are in EDT time to prevent confusion due to time zone crossing. See the THY9 flight status page for this flight to view local times or setup timezone preferences in your user account.

Time Position Orientation Groundspeed Altitude Reporting Facility
EDT Latitude Longitude Course Direction KTS MPH feet Rate Location/Type
06:11AM 41.0710 28.8060 270° West 229 264 2,700  Level FlightAware
06:11AM 41.0770 28.8050 353° North 230 265 2,900 1,320 Climbing FlightAware
06:12AM 41.1160 28.7890 343° North 260 299 3,700 1,560 Climbing FlightAware
06:13AM 41.1550 28.7550 327° Northwest 280 322 4,900 2,040 Climbing FlightAware
06:13AM 41.1700 28.7410 325° Northwest 294 338 5,400 2,520 Climbing FlightAware
06:13AM 41.2060 28.7080 325° Northwest 293 337 6,800 2,580 Climbing FlightAware
06:14AM 41.2450 28.6730 326° Northwest 313 360 8,000 1,920 Climbing FlightAware
06:14AM 41.2740 28.6470 326° Northwest 311 358 8,600 600 Climbing FlightAware
06:15AM 41.3010 28.6220 325° Northwest 311 358 8,600 300 Level FlightAware
06:15AM 41.3410 28.5870 327° Northwest 318 366 8,900 1,080 Climbing FlightAware
06:16AM 41.3870 28.5460 326° Northwest 316 364 9,700 1,680 Climbing FlightAware
06:16AM 41.4380 28.4990 325° Northwest 337 388 11,000 1,500 Climbing FlightAware
06:17AM 41.5010 28.4420 326° Northwest 378 435 11,900 1,500 Climbing FlightAware
06:18AM 41.5770 28.3730 326° Northwest 398 458 13,500 2,040 Climbing FlightAware
06:19AM 41.6400 28.3160 326° Northwest 413 475 15,000 2,460 Climbing FlightAware
06:19AM 41.7000 28.2610 326° Northwest 411 473 16,600 2,160 Climbing FlightAware
06:20AM 41.7770 28.1900 325° Northwest 416 479 18,300 2,160 Climbing FlightAware
06:21AM 41.8400 28.1330 326° Northwest 418 481 19,700 1,500 Climbing FlightAware
06:22AM 41.9050 28.0720 325° Northwest 427 491 20,300 1,680 Climbing FlightAware
06:22AM 41.9900 28.0250 338° Northwest 437 503 22,300 2,400 Climbing FlightAware
06:23AM 42.0690 27.9820 338° Northwest 437 503 23,700 1,680 Climbing FlightAware
06:24AM 42.1560 27.9340 338° Northwest 436 502 24,700 1,380 Climbing FlightAware
06:24AM 42.2220 27.8970 337° Northwest 436 502 25,600 1,260 Climbing FlightAware
06:25AM 42.2990 27.8540 338° Northwest 455 524 26,400 1,200 Climbing FlightAware
06:26AM 42.3750 27.8120 338° Northwest 460 529 27,200 1,320 Climbing FlightAware
06:26AM 42.4770 27.7540 337° Northwest 466 536 28,300 1,260 Climbing FlightAware
06:27AM 42.5710 27.7020 338° Northwest 471 542 29,200 1,020 Climbing FlightAware
06:28AM 42.6410 27.6620 337° Northwest 476 548 29,700 600 Climbing FlightAware
06:28AM 42.7100 27.6230 337° Northwest 471 542 30,000 180 Climbing FlightAware
06:29AM 42.7910 27.5770 337° Northwest 470 541 30,000  Level FlightAware
06:30AM 42.9030 27.5130 337° Northwest 470 541 30,000  Level FlightAware
06:31AM 43.0450 27.4320 337° Northwest 475 547 30,000  Level FlightAware
06:32AM 43.1350 27.3810 338° Northwest 475 547 30,000  Level FlightAware
06:33AM 43.2030 27.3410 337° Northwest 476 548 30,000  Level FlightAware
06:33AM 43.2860 27.2940 338° Northwest 477 549 30,000  Level FlightAware
06:34AM 43.3820 27.2380 337° Northwest 479 551 30,000  Level FlightAware
06:35AM 43.4610 27.1920 337° Northwest 481 554 30,000  Level FlightAware
06:35AM 43.5490 27.1410 337° Northwest 481 554 30,000  Level FlightAware
06:36AM 43.6370 27.0900 337° Northwest 483 556 30,000  Level FlightAware
06:37AM 43.7120 27.0460 337° Northwest 484 557 30,000  Level FlightAware
06:37AM 43.7900 27.0010 337° Northwest 485 558 30,000  Level FlightAware
06:38AM 43.9200 26.9680 350° North 487 560 30,000  Level FlightAware
06:39AM 44.0140 26.9430 349° North 488 562 30,000  Level FlightAware
06:40AM 44.1050 26.9170 348° North 489 563 30,000  Level FlightAware
06:40AM 44.1830 26.8930 348° North 489 563 30,000  Level FlightAware
06:41AM 44.2590 26.8710 348° North 489 563 30,000  Level FlightAware
06:42AM 44.3530 26.8430 348° North 489 563 30,000  Level FlightAware
06:42AM 44.4820 26.8280 355° North 492 566 30,000  Level FlightAware
06:43AM 44.5760 26.8060 351° North 492 566 30,000  Level FlightAware
06:44AM 44.6670 26.7840 350° North 492 566 30,000  Level FlightAware
06:45AM 44.7630 26.7610 350° North 492 566 30,000  Level FlightAware
06:45AM 44.8720 26.7350 350° North 492 566 30,000  Level FlightAware
06:46AM 44.9490 26.7170 351° North 492 566 30,000  Level FlightAware
06:47AM 45.0340 26.6960 350° North 492 566 30,000  Level FlightAware
06:47AM 45.1330 26.6730 351° North 493 567 30,000  Level FlightAware
06:48AM 45.2250 26.6500 350° North 493 567 30,000  Level FlightAware
06:49AM 45.3150 26.6290 351° North 492 566 30,000  Level FlightAware
06:49AM 45.4210 26.6030 350° North 492 566 30,000  Level FlightAware
06:50AM 45.5080 26.5820 350° North 492 566 30,000  Level FlightAware
06:51AM 45.6190 26.5550 350° North 491 565 30,000  Level FlightAware
06:52AM 45.7320 26.5270 350° North 492 566 30,000  Level FlightAware
06:52AM 45.8190 26.5060 350° North 493 567 30,000  Level FlightAware
06:53AM 45.9270 26.4790 350° North 493 567 30,000  Level FlightAware
06:54AM 46.0190 26.4560 350° North 488 562 30,000  Level FlightAware
06:55AM 46.1220 26.4300 350° North 487 560 30,000  Level FlightAware
06:55AM 46.2110 26.4080 350° North 488 562 30,000  Level FlightAware
06:56AM 46.3020 26.3850 350° North 490 564 30,000  Level FlightAware
06:57AM 46.3960 26.3620 350° North 492 566 30,000  Level FlightAware
06:57AM 46.5010 26.3350 350° North 493 567 30,000  Level FlightAware
06:58AM 46.5930 26.3120 350° North 495 570 30,000  Level FlightAware
06:59AM 46.7090 26.2820 350° North 497 572 30,000  Level FlightAware
07:00AM 46.8130 26.2560 350° North 498 573 30,000  Level FlightAware
07:00AM 46.9170 26.2290 350° North 499 574 30,000  Level FlightAware
07:01AM 47.0190 26.2030 350° North 499 574 30,000  Level FlightAware
07:02AM 47.1090 26.1800 350° North 498 573 30,000  Level FlightAware
07:03AM 47.1970 26.1570 350° North 498 573 30,000  Level FlightAware
07:03AM 47.3040 26.1290 350° North 499 574 30,000  Level FlightAware
07:04AM 47.3950 26.1060 350° North 502 578 30,000  Level FlightAware
07:05AM 47.4880 26.0810 350° North 502 578 30,000  Level FlightAware
07:05AM 47.5890 26.0550 350° North 504 580 30,000  Level FlightAware
07:06AM 47.6810 26.0300 350° North 504 580 30,000  Level FlightAware
07:07AM 47.7850 26.0030 350° North 504 580 30,000  Level FlightAware
07:07AM 47.8780 25.9780 350° North 505 581 30,000  Level FlightAware
07:08AM 47.9680 25.9540 350° North 506 582 30,000  Level FlightAware
07:09AM 48.0710 25.9230 349° North 505 581 30,000  Level FlightAware
07:09AM 48.1370 25.9040 349° North 505 581 30,000  Level FlightAware
07:10AM 48.2660 25.8650 349° North 503 579 30,000  Level FlightAware
07:11AM 48.3580 25.8370 349° North 503 579 30,000  Level FlightAware
07:12AM 48.4500 25.8100 349° North 502 578 30,000  Level FlightAware
07:12AM 48.5500 25.7790 348° North 501 577 30,000  Level FlightAware
07:13AM 48.6420 25.7520 349° North 500 575 30,000  Level FlightAware
07:14AM 48.7460 25.7200 349° North 498 573 30,000  Level FlightAware
07:14AM 48.8340 25.6930 349° North 497 572 30,000  Level FlightAware
07:15AM 48.9330 25.6630 349° North 500 575 30,000  Level FlightAware
07:16AM 49.0240 25.6350 349° North 501 577 30,000  Level FlightAware
07:17AM 49.1150 25.6070 349° North 499 574 30,000  Level FlightAware
07:17AM 49.2200 25.5740 348° North 501 577 30,000  Level FlightAware
07:18AM 49.3110 25.5460 349° North 502 578 30,000  Level FlightAware
07:19AM 49.4000 25.5180 348° North 502 578 30,000  Level FlightAware
07:19AM 49.5000 25.4870 349° North 502 578 30,000  Level FlightAware
07:20AM 49.5920 25.4580 348° North 502 578 30,000  Level FlightAware
07:21AM 49.6970 25.4250 349° North 501 577 30,000  Level FlightAware
07:21AM 49.7840 25.3970 348° North 497 572 30,000  Level FlightAware
07:22AM 49.8750 25.3680 348° North 498 573 30,000  Level FlightAware
07:23AM 49.9770 25.3350 348° North 499 574 30,000  Level FlightAware
07:24AM 50.0690 25.3050 348° North 498 573 30,000  Level FlightAware
07:24AM 50.1580 25.2760 348° North 499 574 30,000  Level FlightAware
07:25AM 50.2580 25.2440 348° North 500 575 30,000  Level FlightAware
07:26AM 50.3460 25.2150 348° North 500 575 30,000  Level FlightAware
07:26AM 50.4500 25.1810 348° North 503 579 30,000  Level FlightAware
07:27AM 50.5390 25.1520 348° North 504 580 30,000  Level FlightAware
07:28AM 50.6460 25.1170 348° North 503 579 30,000  Level FlightAware
07:28AM 50.7330 25.0880 348° North 502 578 30,000  Level FlightAware
07:29AM 50.8390 25.0530 348° North 502 578 30,000  Level FlightAware
07:30AM 50.9530 25.0150 348° North 504 580 30,000  Level FlightAware
07:31AM 51.0230 24.9910 348° North 505 581 30,000  Level FlightAware
07:32AM 51.1680 24.9420 348° North 505 581 30,000  Level FlightAware
07:32AM 51.2540 24.9120 348° North 504 580 30,000  Level FlightAware
07:33AM 51.4010 24.8620 348° North 504 580 30,000  Level FlightAware
07:34AM 51.4870 24.8320 348° North 503 579 30,000  Level FlightAware
07:35AM 51.5870 24.7980 348° North 504 580 30,000  Level FlightAware
07:35AM 51.6820 24.7650 348° North 505 581 30,000  Level FlightAware
07:36AM 51.7820 24.7300 348° North 505 581 30,000  Level FlightAware
07:37AM 51.8630 24.7020 348° North 505 581 30,000 60 Level FlightAware
07:38AM 51.9750 24.6620 348° North 507 583 30,100 660 Climbing FlightAware
07:38AM 52.0740 24.6270 348° North 505 581 31,100 1,320 Climbing FlightAware
07:39AM 52.1680 24.5940 348° North 503 579 32,000 720 Climbing FlightAware
07:39AM 52.2370 24.5690 347° North 501 577 32,000  Level FlightAware
07:40AM 52.3660 24.5230 348° North 504 580 32,000  Level FlightAware
07:41AM 52.4550 24.4920 348° North 503 579 32,000  Level FlightAware
07:42AM 52.5330 24.4630 347° North 501 577 32,000  Level FlightAware
07:42AM 52.6170 24.4330 348° North 500 575 32,000  Level FlightAware
07:43AM 52.7020 24.4020 348° North 499 574 32,000  Level FlightAware
07:44AM 52.8050 24.3650 348° North 497 572 32,000  Level FlightAware
07:44AM 52.8940 24.3330 348° North 498 573 32,000  Level FlightAware
07:45AM 52.9840 24.3000 348° North 498 573 32,000  Level FlightAware
07:46AM 53.0890 24.2610 347° North 500 575 32,000  Level FlightAware
07:46AM 53.1790 24.2260 347° North 498 573 32,000  Level FlightAware
07:47AM 53.2760 24.1870 346° North 503 579 32,000  Level FlightAware
07:48AM 53.3860 24.1440 347° North 501 577 32,000  Level FlightAware
07:49AM 53.4850 24.1040 346° North 502 578 32,000  Level FlightAware
07:49AM 53.5910 24.0620 347° North 503 579 32,000  Level FlightAware
07:50AM 53.6810 24.0240 346° North 501 577 32,000  Level FlightAware
07:51AM 53.7670 23.9830 344° North 501 577 32,000  Level FlightAware
07:51AM 53.8600 23.9390 344° North 502 578 32,000  Level FlightAware
07:52AM 53.9610 23.8880 343° North 497 572 32,000  Level FlightAware
07:53AM 54.0570 23.8270 340° North 495 570 32,000  Level FlightAware
07:54AM 54.1420 23.7710 339° North 496 571 32,000  Level FlightAware
07:54AM 54.2410 23.7060 339° North 498 573 32,000  Level FlightAware
07:55AM 54.3060 23.6620 338° Northwest 497 572 32,000  Level FlightAware
07:56AM 54.4070 23.5940 339° North 498 573 32,000  Level FlightAware
07:56AM 54.5050 23.5280 339° North 498 573 32,000  Level FlightAware
07:57AM 54.5900 23.4710 339° North 497 572 32,000  Level FlightAware
07:58AM 54.6890 23.4030 338° Northwest 495 570 32,000  Level FlightAware
07:59AM 54.7740 23.3450 339° North 492 566 32,000  Level FlightAware
07:59AM 54.8590 23.2870 339° North 492 566 32,000  Level FlightAware
08:00AM 54.9520 23.2220 338° Northwest 493 567 32,000  Level FlightAware
08:01AM 55.0350 23.1640 338° Northwest 489 563 32,000  Level FlightAware
08:01AM 55.1310 23.0980 339° North 491 565 32,000  Level FlightAware
08:02AM 55.2170 23.0370 338° Northwest 491 565 32,000  Level FlightAware
08:03AM 55.3090 22.9730 338° Northwest 492 566 32,000  Level FlightAware
08:03AM 55.3880 22.9160 338° Northwest 493 567 32,000  Level FlightAware
08:04AM 55.5040 22.8350 338° Northwest 496 571 32,000  Level FlightAware
08:05AM 55.5970 22.7670 338° Northwest 494 568 32,000  Level FlightAware
08:06AM 55.6900 22.7010 338° Northwest 494 568 32,000  Level FlightAware
08:06AM 55.7750 22.6400 338° Northwest 493 567 32,000  Level FlightAware
08:07AM 55.8670 22.5720 337° Northwest 493 567 32,000  Level FlightAware
08:08AM 55.9530 22.5100 338° Northwest 491 565 32,000  Level FlightAware
08:09AM 56.0440 22.4430 338° Northwest 488 562 32,000  Level FlightAware
08:09AM 56.1270 22.3820 338° Northwest 487 560 32,000  Level FlightAware
08:10AM 56.2130 22.3180 338° Northwest 487 560 32,000  Level FlightAware
08:11AM 56.2890 22.2620 338° Northwest 488 562 32,000  Level FlightAware
08:11AM 56.3940 22.1830 337° Northwest 490 564 32,000  Level FlightAware
08:12AM 56.4870 22.1110 337° Northwest 487 560 32,000  Level FlightAware
08:13AM 56.5640 22.0380 332° Northwest 482 555 32,000  Level FlightAware
08:13AM 56.6410 21.9590 331° Northwest 481 554 32,000  Level FlightAware
08:14AM 56.7280 21.8670 330° Northwest 480 552 32,000  Level FlightAware
08:15AM 56.8050 21.7840 329° Northwest 480 552 32,000  Level FlightAware
08:16AM 56.8880 21.6940 329° Northwest 477 549 32,000  Level FlightAware
08:16AM 56.9620 21.6140 329° Northwest 478 550 32,000  Level FlightAware
08:17AM 57.0480 21.5330 333° Northwest 488 562 32,000  Level FlightAware
08:18AM 57.1270 21.4770 339° North 497 572 32,000  Level FlightAware
08:18AM 57.2260 21.4100 340° North 493 567 32,000  Level FlightAware
08:19AM 57.3190 21.3470 340° North 491 565 32,000  Level FlightAware
08:20AM 57.4070 21.2880 340° North 491 565 32,000  Level FlightAware
08:20AM 57.4850 21.2360 340° North 491 565 32,000  Level FlightAware
08:21AM 57.5880 21.1660 340° North 489 563 32,000  Level FlightAware
08:22AM 57.6740 21.1070 340° North 490 564 32,000  Level FlightAware
08:23AM 57.7670 21.0440 340° North 490 564 32,000  Level FlightAware
08:23AM 57.8530 20.9840 340° North 489 563 32,000  Level FlightAware
08:24AM 57.9370 20.9250 340° North 489 563 32,000  Level FlightAware
08:25AM 58.0350 20.8540 339° North 489 563 32,000  Level FlightAware
08:25AM 58.1180 20.7940 339° North 488 562 32,000  Level FlightAware
08:26AM 58.2030 20.7330 339° North 487 560 32,000  Level FlightAware
08:27AM 58.2960 20.6650 339° North 486 559 32,000  Level FlightAware
08:27AM 58.3800 20.6040 339° North 487 560 32,000  Level FlightAware
08:28AM 58.4760 20.5330 339° North 484 557 32,000  Level FlightAware
08:29AM 58.5570 20.4630 336° Northwest 477 549 32,000  Level FlightAware
08:30AM 58.6340 20.3840 332° Northwest 476 548 32,000  Level FlightAware
08:30AM 58.7200 20.2940 331° Northwest 476 548 32,000  Level FlightAware
08:31AM 58.7970 20.2120 331° Northwest 474 545 32,000  Level FlightAware
08:32AM 58.8730 20.1290 331° Northwest 474 545 32,000  Level FlightAware
08:32AM 58.9580 20.0370 331° Northwest 475 547 32,000  Level FlightAware
08:33AM 59.0340 19.9540 331° Northwest 474 545 32,000  Level FlightAware
08:34AM 59.1190 19.8620 331° Northwest 471 542 32,000  Level FlightAware
08:34AM 59.1970 19.7760 331° Northwest 472 543 32,000  Level FlightAware
08:35AM 59.2720 19.6930 331° Northwest 472 543 32,000  Level FlightAware
08:36AM 59.3560 19.5990 330° Northwest 473 544 32,000  Level FlightAware
08:37AM 59.4320 19.5140 330° Northwest 473 544 32,000  Level FlightAware
08:37AM 59.5090 19.4270 330° Northwest 476 548 32,000  Level FlightAware
08:38AM 59.5970 19.3280 330° Northwest 478 550 32,000  Level FlightAware
08:39AM 59.6740 19.2410 330° Northwest 478 550 32,000  Level FlightAware
08:39AM 59.7560 19.1470 330° Northwest 478 550 32,000  Level FlightAware
08:40AM 59.8320 19.0590 330° Northwest 476 548 32,000  Level FlightAware
08:41AM 59.9190 18.9590 330° Northwest 471 542 32,000  Level FlightAware
08:41AM 59.9940 18.8710 330° Northwest 473 544 32,000  Level FlightAware
08:42AM 60.0710 18.7820 330° Northwest 472 543 32,000  Level FlightAware
08:43AM 60.1540 18.6850 330° Northwest 468 539 32,000  Level FlightAware
08:44AM 60.2280 18.5970 329° Northwest 470 541 32,000  Level FlightAware
08:44AM 60.3130 18.4960 330° Northwest 471 542 32,000  Level FlightAware
08:45AM 60.3950 18.3970 329° Northwest 470 541 32,000  Level FlightAware
08:46AM 60.4630 18.3160 330° Northwest 470 541 32,000  Level FlightAware
08:46AM 60.5460 18.2150 329° Northwest 473 544 32,000  Level FlightAware
08:47AM 60.6310 18.1120 329° Northwest 475 547 32,000  Level FlightAware
08:48AM 60.7060 18.0200 329° Northwest 475 547 32,000  Level FlightAware
08:49AM 60.7890 17.9180 329° Northwest 472 543 32,000  Level FlightAware
08:49AM 60.8630 17.8260 329° Northwest 471 542 32,000  Level FlightAware
08:50AM 60.9390 17.7310 329° Northwest 473 544 32,000  Level FlightAware
08:51AM 61.0190 17.6310 329° Northwest 473 544 32,000  Level FlightAware
08:51AM 61.0940 17.5370 329° Northwest 472 543 32,000  Level FlightAware
08:52AM 61.1710 17.4390 328° Northwest 470 541 32,000  Level FlightAware
08:53AM 61.2520 17.3370 329° Northwest 470 541 32,000  Level FlightAware
08:53AM 61.3250 17.2430 328° Northwest 471 542 32,000  Level FlightAware
08:54AM 61.3890 17.1600 328° Northwest 472 543 32,000  Level FlightAware
08:55AM 61.4850 17.0360 328° Northwest 475 547 32,000  Level FlightAware
08:55AM 61.5600 16.9380 328° Northwest 474 545 32,000  Level FlightAware
08:56AM 61.6450 16.8270 328° Northwest 473 544 32,000  Level FlightAware
08:57AM 61.7170 16.7300 327° Northwest 472 543 32,000  Level FlightAware
08:58AM 61.7920 16.6310 328° Northwest 473 544 32,000  Level FlightAware
08:58AM 61.8730 16.5230 328° Northwest 473 544 32,000  Level FlightAware
08:59AM 61.9470 16.4240 328° Northwest 473 544 32,000  Level FlightAware
09:00AM 62.0300 16.3110 327° Northwest 471 542 32,000  Level FlightAware
09:00AM 62.1000 16.2150 327° Northwest 472 543 32,000  Level FlightAware
09:01AM 62.1860 16.0980 328° Northwest 469 540 32,000  Level FlightAware
09:02AM 62.2460 16.0160 328° Northwest 470 541 32,000  Level FlightAware
09:03AM 62.3430 15.8810 327° Northwest 472 543 32,000  Level FlightAware
09:03AM 62.4150 15.7800 327° Northwest 472 543 32,000  Level FlightAware
09:04AM 62.4880 15.6780 327° Northwest 472 543 32,000  Level FlightAware
09:05AM 62.5690 15.5630 327° Northwest 472 543 32,000  Level FlightAware
09:05AM 62.6430 15.4580 327° Northwest 475 547 32,000  Level FlightAware
09:06AM 62.7240 15.3410 327° Northwest 477 549 32,000  Level FlightAware
09:07AM 62.7970 15.2370 327° Northwest 477 549 32,000  Level FlightAware
09:07AM 62.8710 15.1290 326° Northwest 473 544 32,000  Level FlightAware
09:08AM 62.9530 15.0090 326° Northwest 475 547 32,000  Level FlightAware
09:09AM 63.0280 14.9010 327° Northwest 473 544 32,000  Level FlightAware
09:10AM 63.1060 14.7840 326° Northwest 475 547 32,000  Level FlightAware
09:10AM 63.1620 14.7010 326° Northwest 473 544 32,000  Level FlightAware
09:11AM 63.2450 14.5780 326° Northwest 471 542 32,000  Level FlightAware
09:11AM 63.3140 14.4730 326° Northwest 472 543 32,000  Level FlightAware
09:12AM 63.3950 14.3510 326° Northwest 471 542 32,000  Level FlightAware
09:13AM 63.4670 14.2410 326° Northwest 471 542 32,000  Level FlightAware
09:14AM 63.5500 14.1130 326° Northwest 471 542 32,000  Level FlightAware
09:14AM 63.6200 14.0050 326° Northwest 470 541 32,000  Level FlightAware
09:15AM 63.6910 13.8950 326° Northwest 470 541 32,000  Level FlightAware
09:16AM 63.7710 13.7710 326° Northwest 469 540 32,000  Level FlightAware
09:16AM 63.8440 13.6560 325° Northwest 469 540 32,000  Level FlightAware
09:17AM 63.9230 13.5300 325° Northwest 468 539 32,000  Level FlightAware
09:18AM 63.9940 13.4170 325° Northwest 458 527 32,000  Level FlightAware
09:18AM 64.0640 13.3050 325° Northwest 458 527 32,000  Level FlightAware
09:19AM 64.1400 13.1810 325° Northwest 458 527 32,000  Level FlightAware
09:20AM 64.2120 13.0640 325° Northwest 458 527 32,000  Level FlightAware
09:21AM 64.2970 12.9250 325° Northwest 458 527 32,000  Level FlightAware
09:22AM 64.3860 12.7790 325° Northwest 464 534 32,000  Level FlightAware
09:22AM 64.4540 12.6640 324° Northwest 456 525 32,000  Level FlightAware
09:23AM 64.5350 12.5260 324° Northwest 456 525 32,000  Level FlightAware
09:24AM 64.6080 12.4060 325° Northwest 460 529 32,000  Level FlightAware
09:24AM 64.6780 12.2870 324° Northwest 458 527 32,000  Level FlightAware
09:25AM 64.7470 12.1690 324° Northwest 458 527 32,000  Level FlightAware
09:26AM 64.8160 12.0470 323° Northwest 458 527 32,000  Level FlightAware
09:27AM 64.9070 11.8930 324° Northwest 32,000  Level FlightAware
09:28AM 65.0630 11.6180 323° Northwest 452 520 32,000  Level FlightAware
09:29AM 65.1350 11.4920 324° Northwest 452 520 32,000  Level FlightAware
09:30AM 65.2060 11.3640 323° Northwest 451 519 32,000  Level FlightAware
09:30AM 65.2880 11.2170 323° Northwest 451 519 32,000  Level FlightAware
09:31AM 65.3640 11.0790 323° Northwest 449 517 32,000  Level FlightAware
09:32AM 65.4290 10.9560 322° Northwest 449 517 32,000  Level FlightAware
09:33AM 65.4850 10.8520 322° Northwest 449 517 32,000  Level FlightAware
09:33AM 65.5410 10.7470 322° Northwest 449 517 32,000  Level FlightAware
09:34AM 65.6100 10.6150 322° Northwest 449 517 32,000  Level FlightAware
09:35AM 65.6660 10.5100 322° Northwest 449 517 32,000  Level FlightAware
09:35AM 65.7790 10.3090 324° Northwest 32,000  Level FlightAware
09:36AM 65.8680 10.1380 322° Northwest 444 511 32,000  Level FlightAware
09:37AM 65.9230 10.0330 322° Northwest 444 511 32,000  Level FlightAware
09:38AM 65.9780 9.9270 322° Northwest 444 511 32,000  Level FlightAware
09:38AM 66.0330 9.8210 322° Northwest 444 511 32,000  Level FlightAware
09:39AM 66.1400 9.6100 321° Northwest 439 505 32,000  Level FlightAware
09:40AM 66.1930 9.5020 321° Northwest 439 505 32,000  Level FlightAware
09:41AM 66.2470 9.3940 321° Northwest 439 505 32,000  Level FlightAware
09:41AM 66.3010 9.2860 321° Northwest 439 505 32,000  Level FlightAware
09:42AM 66.3540 9.1780 321° Northwest 439 505 32,000  Level FlightAware
09:43AM 66.4210 9.0420 321° Northwest 439 505 32,000  Level FlightAware
09:44AM 66.5540 8.7750 321° Northwest 434 499 32,000  Level FlightAware
09:44AM 66.6060 8.6640 320° Northwest 434 499 32,000  Level FlightAware
09:45AM 66.6590 8.5540 321° Northwest 434 499 32,000  Level FlightAware
09:46AM 66.7110 8.4430 320° Northwest 434 499 32,000  Level FlightAware
09:46AM 66.7630 8.3320 320° Northwest 434 499 32,000  Level FlightAware
09:47AM 66.8280 8.1920 320° Northwest 434 499 32,000  Level FlightAware
09:48AM 66.8810 8.0810 321° Northwest 434 499 32,000  Level FlightAware
09:49AM 66.9330 7.9690 320° Northwest 434 499 32,000  Level FlightAware
09:49AM 66.9850 7.8570 320° Northwest 434 499 32,000  Level FlightAware
09:50AM 67.0380 7.7440 320° Northwest 434 499 32,000  Level FlightAware
09:51AM 67.1030 7.6030 320° Northwest 434 499 32,000  Level FlightAware
09:51AM 67.1550 7.4910 320° Northwest 434 499 32,000  Level FlightAware
09:52AM 67.2080 7.3770 320° Northwest 434 499 32,000  Level FlightAware
09:53AM 67.2600 7.2640 320° Northwest 434 499 32,000  Level FlightAware
09:55AM 67.4203 6.8376 314° West  Level Estimated
09:56AM 67.5088 6.5981 314° West  Level Estimated
09:57AM 67.5970 6.3570 314° West  Level Estimated
09:58AM 67.6849 6.1140 314° West  Level Estimated
09:59AM 67.7723 5.8692 313° West  Level Estimated
10:00AM 67.8594 5.6225 313° West  Level Estimated
10:01AM 67.9462 5.3740 313° West  Level Estimated
10:02AM 68.0325 5.1237 313° West  Level Estimated
10:03AM 68.1185 4.8714 313° West  Level Estimated
10:04AM 68.2041 4.6173 312° West  Level Estimated
10:05AM 68.2893 4.3613 312° West  Level Estimated
10:06AM 68.3741 4.1034 312° West  Level Estimated
10:07AM 68.4585 3.8435 312° West  Level Estimated
10:08AM 68.5424 3.5817 311° West  Level Estimated
10:09AM 68.6260 3.3180 311° West  Level Estimated
10:10AM 68.7092 3.0522 311° West  Level Estimated
10:11AM 68.7919 2.7845 311° West  Level Estimated
10:12AM 68.8743 2.5148 310° West  Level Estimated
10:13AM 68.9561 2.2431 310° West  Level Estimated
10:14AM 69.0376 1.9694 310° West  Level Estimated
10:15AM 69.1186 1.6937 310° West  Level Estimated
10:16AM 69.1992 1.4158 309° West  Level Estimated
10:17AM 69.2793 1.1360 309° West  Level Estimated
10:18AM 69.3589 0.8540 309° West  Level Estimated
10:19AM 69.4381 0.5700 309° West  Level Estimated
10:20AM 69.5169 0.2839 308° West  Level Estimated
10:21AM 69.5952 -0.0043 308° West  Level Estimated
10:22AM 69.6729 -0.2947 308° West  Level Estimated
10:23AM 69.7502 -0.5871 307° West  Level Estimated
10:24AM 69.8271 -0.8817 307° West  Level Estimated
10:25AM 69.9034 -1.1785 307° West  Level Estimated
10:26AM 69.9792 -1.4774 307° West  Level Estimated
10:27AM 70.0545 -1.7785 306° West  Level Estimated
10:28AM 70.1293 -2.0818 306° West  Level Estimated
10:29AM 70.2036 -2.3873 306° West  Level Estimated
10:30AM 70.2774 -2.6949 305° West  Level Estimated
10:31AM 70.3506 -3.0048 305° West  Level Estimated
10:32AM 70.4233 -3.3169 305° West  Level Estimated
10:33AM 70.4955 -3.6312 305° West  Level Estimated
10:34AM 70.5671 -3.9478 304° West  Level Estimated
10:35AM 70.6382 -4.2666 304° West  Level Estimated
10:36AM 70.7087 -4.5876 304° West  Level Estimated
10:37AM 70.7786 -4.9110 303° West  Level Estimated
10:38AM 70.8480 -5.2365 303° West  Level Estimated
10:39AM 70.9168 -5.5644 303° West  Level Estimated
10:40AM 70.9850 -5.8945 302° West  Level Estimated
10:41AM 71.0526 -6.2269 302° West  Level Estimated
10:42AM 71.1196 -6.5615 302° West  Level Estimated
10:43AM 71.1860 -6.8985 302° West  Level Estimated
10:44AM 71.2518 -7.2378 301° West  Level Estimated
10:45AM 71.3170 -7.5793 301° West  Level Estimated
10:46AM 71.3816 -7.9231 301° West  Level Estimated
10:47AM 71.4455 -8.2693 300° West  Level Estimated
10:48AM 71.5089 -8.6177 300° West  Level Estimated
10:49AM 71.5715 -8.9684 300° West  Level Estimated
10:50AM 71.6336 -9.3215 299° West  Level Estimated
10:51AM 71.6949 -9.6768 299° West  Level Estimated
10:52AM 71.7556 -10.0344 299° West  Level Estimated
10:53AM 71.8156 -10.3943 298° West  Level Estimated
10:54AM 71.8750 -10.7565 298° West  Level Estimated
10:55AM 71.9337 -11.1210 298° West  Level Estimated
10:56AM 71.9917 -11.4878 297° West  Level Estimated
10:57AM 72.0490 -11.8568 297° West  Level Estimated
10:58AM 72.1056 -12.2281 297° West  Level Estimated
10:59AM 72.1615 -12.6017 296° West  Level Estimated
11:00AM 72.2166 -12.9776 296° West  Level Estimated
11:01AM 72.2711 -13.3557 295° West  Level Estimated
11:02AM 72.3248 -13.7360 295° West  Level Estimated
11:03AM 72.3778 -14.1186 295° West  Level Estimated
11:04AM 72.4300 -14.5033 294° West  Level Estimated
11:05AM 72.4815 -14.8903 294° West  Level Estimated
11:06AM 72.5323 -15.2795 294° West  Level Estimated
11:07AM 72.5823 -15.6709 293° West  Level Estimated
11:08AM 72.6315 -16.0644 293° West  Level Estimated
11:09AM 72.6799 -16.4601 293° West  Level Estimated
11:10AM 72.7276 -16.8579 292° West  Level Estimated
11:11AM 72.7744 -17.2578 292° West  Level Estimated
11:12AM 72.8205 -17.6598 291° West  Level Estimated
11:13AM 72.8658 -18.0639 291° West  Level Estimated
11:14AM 72.9103 -18.4701 291° West  Level Estimated
11:15AM 72.9539 -18.8783 290° West  Level Estimated
11:16AM 72.9968 -19.2885 290° West  Level Estimated
11:17AM 73.0388 -19.7007 289° West  Level Estimated
11:18AM 73.0800 -20.1149 289° West  Level Estimated
11:19AM 73.1203 -20.5310 289° West  Level Estimated
11:20AM 73.1598 -20.9490 288° West  Level Estimated
11:21AM 73.1985 -21.3690 288° West  Level Estimated
11:22AM 73.2363 -21.7907 287° West  Level Estimated
11:23AM 73.2732 -22.2143 287° West  Level Estimated
11:24AM 73.3093 -22.6398 287° West  Level Estimated
11:25AM 73.3445 -23.0669 286° West  Level Estimated
11:26AM 73.3788 -23.4958 286° West  Level Estimated
11:27AM 73.4122 -23.9265 285° West  Level Estimated
11:28AM 73.4448 -24.3587 285° West  Level Estimated
11:29AM 73.4764 -24.7927 285° West  Level Estimated
11:30AM 73.5072 -25.2282 284° West  Level Estimated
11:31AM 73.5370 -25.6653 284° West  Level Estimated
11:32AM 73.5660 -26.1038 283° West  Level Estimated
11:33AM 73.5940 -26.5439 283° West  Level Estimated
11:34AM 73.6211 -26.9854 282° West  Level Estimated
11:35AM 73.6473 -27.4283 282° West  Level Estimated
11:36AM 73.6726 -27.8726 282° West  Level Estimated
11:37AM 73.6969 -28.3182 281° West  Level Estimated
11:38AM 73.7203 -28.7650 281° West  Level Estimated
11:39AM 73.7427 -29.2131 280° West  Level Estimated
11:40AM 73.7642 -29.6624 280° West  Level Estimated
11:41AM 73.7848 -30.1128 279° West  Level Estimated
11:42AM 73.8044 -30.5642 279° West  Level Estimated
11:43AM 73.8230 -31.0168 279° West  Level Estimated
11:44AM 73.8407 -31.4703 278° West  Level Estimated
11:45AM 73.8574 -31.9247 278° West  Level Estimated
11:46AM 73.8732 -32.3801 277° West  Level Estimated
11:47AM 73.8880 -32.8362 277° West  Level Estimated
11:48AM 73.9018 -33.2932 276° West  Level Estimated
11:49AM 73.9147 -33.7509 276° West  Level Estimated
11:50AM 73.9266 -34.2093 276° West  Level Estimated
11:51AM 73.9375 -34.6684 275° West  Level Estimated
11:52AM 73.9474 -35.1280 275° West  Level Estimated
11:53AM 73.9563 -35.5881 274° West  Level Estimated
11:54AM 73.9643 -36.0487 274° West  Level Estimated
11:55AM 73.9713 -36.5097 273° West  Level Estimated
11:56AM 73.9772 -36.9711 273° West  Level Estimated
11:57AM 73.9822 -37.4328 272° West  Level Estimated
11:58AM 73.9863 -37.8948 272° West  Level Estimated
11:59AM 73.9893 -38.3569 272° West  Level Estimated
12:00PM 73.9913 -38.8192 271° West  Level Estimated
12:01PM 73.9924 -39.2816 271° West  Level Estimated
12:02PM 73.9924 -39.7440 270° West  Level Estimated
12:03PM 73.9915 -40.2064 270° West  Level Estimated
12:04PM 73.9896 -40.6687 269° West  Level Estimated
12:05PM 73.9867 -41.1309 269° West  Level Estimated
12:06PM 73.9828 -41.5928 268° West  Level Estimated
12:07PM 73.9779 -42.0546 268° West  Level Estimated
12:08PM 73.9720 -42.5160 268° West  Level Estimated
12:09PM 73.9652 -42.9771 267° West  Level Estimated
12:10PM 73.9574 -43.4377 267° West  Level Estimated
12:11PM 73.9485 -43.8979 266° West  Level Estimated
12:12PM 73.9387 -44.3576 266° West  Level Estimated
12:13PM 73.9279 -44.8167 265° West  Level Estimated
12:14PM 73.9162 -45.2752 265° West  Level Estimated
12:15PM 73.9035 -45.7330 264° West  Level Estimated
12:16PM 73.8897 -46.1901 264° West  Level Estimated
12:17PM 73.8751 -46.6463 264° West  Level Estimated
12:18PM 73.8594 -47.1018 263° West  Level Estimated
12:19PM 73.8428 -47.5564 263° West  Level Estimated
12:20PM 73.8252 -48.0100 262° West  Level Estimated
12:21PM 73.8067 -48.4626 262° West  Level Estimated
12:22PM 73.7872 -48.9142 261° West  Level Estimated
12:23PM 73.7668 -49.3648 261° West  Level Estimated
12:24PM 73.7454 -49.8142 261° West  Level Estimated
12:25PM 73.7231 -50.2624 260° West  Level Estimated
12:26PM 73.6998 -50.7094 260° West  Level Estimated
12:27PM 73.6756 -51.1551 259° West  Level Estimated
12:28PM 73.6505 -51.5996 259° West  Level Estimated
12:29PM 73.6244 -52.0426 258° West  Level Estimated
12:30PM 73.5974 -52.4843 258° West  Level Estimated
12:31PM 73.5695 -52.9246 258° West  Level Estimated
12:32PM 73.5406 -53.3634 257° West  Level Estimated
12:33PM 73.5109 -53.8006 257° West  Level Estimated
12:34PM 73.4803 -54.2363 256° West  Level Estimated
12:35PM 73.4487 -54.6704 256° West  Level Estimated
12:36PM 73.4163 -55.1029 255° West  Level Estimated
12:37PM 73.3830 -55.5338 255° West  Level Estimated
12:38PM 73.3487 -55.9629 255° West  Level Estimated
12:39PM 73.3137 -56.3903 254° West  Level Estimated
12:40PM 73.2777 -56.8159 254° West  Level Estimated
12:41PM 73.2409 -57.2397 253° West  Level Estimated
12:42PM 73.2032 -57.6617 253° West  Level Estimated
12:43PM 73.1646 -58.0819 253° West  Level Estimated
12:44PM 73.1252 -58.5001 252° West  Level Estimated
12:45PM 73.0850 -58.9165 252° West  Level Estimated
12:46PM 73.0439 -59.3309 251° West  Level Estimated
12:47PM 73.0020 -59.7434 251° West  Level Estimated
12:48PM 72.9593 -60.1538 251° West  Level Estimated
12:49PM 72.9157 -60.5623 250° West  Level Estimated
12:50PM 72.8713 -60.9687 250° West  Level Estimated
12:51PM 72.8261 -61.3730 249° West  Level Estimated
12:52PM 72.7802 -61.7753 249° West  Level Estimated
12:53PM 72.7334 -62.1755 249° West  Level Estimated
12:54PM 72.6858 -62.5736 248° West  Level Estimated
12:55PM 72.6375 -62.9695 248° West  Level Estimated
12:56PM 72.5884 -63.3633 248° West  Level Estimated
12:57PM 72.5385 -63.7549 247° West  Level Estimated
12:58PM 72.4878 -64.1444 247° West  Level Estimated
12:59PM 72.4364 -64.5316 246° West  Level Estimated
01:00PM 72.3842 -64.9167 246° West  Level Estimated
01:01PM 72.3314 -65.2995 246° West  Level Estimated
01:02PM 72.2777 -65.6801 245° Southwest  Level Estimated
01:03PM 72.2234 -66.0585 245° Southwest  Level Estimated
01:04PM 72.1689 -66.4307 245° Southwest  Level Estimated
01:05PM 72.1137 -66.8007 244° Southwest  Level Estimated
01:06PM 72.0578 -67.1684 244° Southwest  Level Estimated
01:07PM 72.0012 -67.5340 244° Southwest  Level Estimated
01:08PM 71.9439 -67.8972 243° Southwest  Level Estimated
01:09PM 71.8860 -68.2583 243° Southwest  Level Estimated
01:10PM 71.8274 -68.6171 242° Southwest  Level Estimated
01:11PM 71.7681 -68.9737 242° Southwest  Level Estimated
01:12PM 71.7082 -69.3281 242° Southwest  Level Estimated
01:13PM 71.6476 -69.6802 241° Southwest  Level Estimated
01:14PM 71.5864 -70.0300 241° Southwest  Level Estimated
01:15PM 71.5245 -70.3776 241° Southwest  Level Estimated
01:16PM 71.4620 -70.7230 240° Southwest  Level Estimated
01:17PM 71.3989 -71.0661 240° Southwest  Level Estimated
01:18PM 71.3352 -71.4069 240° Southwest  Level Estimated
01:19PM 71.2709 -71.7455 240° Southwest  Level Estimated
01:20PM 71.2059 -72.0819 239° Southwest  Level Estimated
01:21PM 71.1404 -72.4160 239° Southwest  Level Estimated
01:22PM 71.0743 -72.7479 239° Southwest  Level Estimated
01:23PM 71.0076 -73.0775 238° Southwest  Level Estimated
01:24PM 70.9403 -73.4049 238° Southwest  Level Estimated
01:25PM 70.8724 -73.7301 238° Southwest  Level Estimated
01:26PM 70.8040 -74.0530 237° Southwest  Level Estimated
01:27PM 70.7350 -74.3738 237° Southwest  Level Estimated
01:28PM 70.6654 -74.6923 237° Southwest  Level Estimated
01:29PM 70.5953 -75.0086 236° Southwest  Level Estimated
01:30PM 70.5247 -75.3227 236° Southwest  Level Estimated
01:31PM 70.4535 -75.6347 236° Southwest  Level Estimated
01:32PM 70.3818 -75.9444 236° Southwest  Level Estimated
01:33PM 70.3095 -76.2520 235° Southwest  Level Estimated
01:34PM 70.2368 -76.5574 235° Southwest  Level Estimated
01:35PM 70.1635 -76.8606 235° Southwest  Level Estimated
01:36PM 70.0897 -77.1617 234° Southwest  Level Estimated
01:37PM 70.0154 -77.4607 234° Southwest  Level Estimated
01:38PM 69.9407 -77.7575 234° Southwest  Level Estimated
01:39PM 69.8654 -78.0522 234° Southwest  Level Estimated
01:40PM 69.7896 -78.3448 233° Southwest  Level Estimated
01:41PM 69.7134 -78.6353 233° Southwest  Level Estimated
01:42PM 69.6367 -78.9237 233° Southwest  Level Estimated
01:43PM 69.5595 -79.2100 232° Southwest  Level Estimated
01:44PM 69.4818 -79.4942 232° Southwest  Level Estimated
01:45PM 69.4037 -79.7764 232° Southwest  Level Estimated
01:46PM 69.3252 -80.0566 232° Southwest  Level Estimated
01:47PM 69.2461 -80.3347 231° Southwest  Level Estimated
01:48PM 69.1667 -80.6108 231° Southwest  Level Estimated
01:49PM 69.0868 -80.8849 231° Southwest  Level Estimated
01:50PM 69.0064 -81.1569 231° Southwest  Level Estimated
01:51PM 68.9257 -81.4270 230° Southwest  Level Estimated
01:52PM 68.8445 -81.6952 230° Southwest  Level Estimated
01:53PM 68.7629 -81.9613 230° Southwest  Level Estimated
01:54PM 68.6809 -82.2255 230° Southwest  Level Estimated
01:55PM 68.5984 -82.4878 229° Southwest  Level Estimated
01:56PM 68.5156 -82.7482 229° Southwest  Level Estimated
01:57PM 68.4324 -83.0066 229° Southwest  Level Estimated
01:58PM 68.3487 -83.2631 229° Southwest  Level Estimated
01:59PM 68.2647 -83.5178 228° Southwest  Level Estimated
02:00PM 68.1803 -83.7706 228° Southwest  Level Estimated
02:01PM 68.0955 -84.0215 228° Southwest  Level Estimated
02:02PM 68.0104 -84.2706 228° Southwest  Level Estimated
02:03PM 67.9248 -84.5179 227° Southwest  Level Estimated
02:04PM 67.8389 -84.7633 227° Southwest  Level Estimated
02:05PM 67.7526 -85.0069 227° Southwest  Level Estimated
02:06PM 67.6660 -85.2488 227° Southwest  Level Estimated
02:07PM 67.5790 -85.4888 227° Southwest  Level Estimated
02:08PM 67.4917 -85.7271 226° Southwest  Level Estimated
02:09PM 67.4040 -85.9637 226° Southwest  Level Estimated
02:10PM 67.3160 -86.1985 226° Southwest  Level Estimated
02:11PM 67.2276 -86.4316 226° Southwest  Level Estimated
02:12PM 67.1389 -86.6630 225° Southwest  Level Estimated
02:13PM 67.0498 -86.8927 225° Southwest  Level Estimated
02:14PM 66.9605 -87.1207 225° Southwest  Level Estimated
02:15PM 66.8708 -87.3470 225° Southwest  Level Estimated
02:16PM 66.7808 -87.5717 225° Southwest  Level Estimated
02:17PM 66.6904 -87.7947 224° Southwest  Level Estimated
02:18PM 66.5998 -88.0161 224° Southwest  Level Estimated
02:19PM 66.5088 -88.2359 224° Southwest  Level Estimated
02:20PM 66.4176 -88.4541 224° Southwest  Level Estimated
02:21PM 66.3260 -88.6707 224° Southwest  Level Estimated
02:22PM 66.2341 -88.8857 223° Southwest  Level Estimated
02:23PM 66.1420 -89.0992 223° Southwest  Level Estimated
02:24PM 66.0495 -89.3111 223° Southwest  Level Estimated
02:25PM 65.9568 -89.5215 223° Southwest  Level Estimated
02:26PM 65.8638 -89.7303 223° Southwest  Level Estimated
02:27PM 65.7705 -89.9377 222° Southwest  Level Estimated
02:28PM 65.6769 -90.1435 222° Southwest  Level Estimated
02:29PM 65.5830 -90.3479 222° Southwest  Level Estimated
02:30PM 65.4889 -90.5508 222° Southwest  Level Estimated
02:31PM 65.3945 -90.7522 222° Southwest  Level Estimated
02:32PM 65.2998 -90.9522 221° Southwest  Level Estimated
02:33PM 65.2049 -91.1507 221° Southwest  Level Estimated
02:34PM 65.1097 -91.3478 221° Southwest  Level Estimated
02:35PM 65.0143 -91.5436 221° Southwest  Level Estimated
02:36PM 64.9185 -91.7379 221° Southwest  Level Estimated
02:37PM 64.8226 -91.9308 221° Southwest  Level Estimated
02:38PM 64.7264 -92.1224 220° Southwest  Level Estimated
02:39PM 64.6300 -92.3126 220° Southwest  Level Estimated
02:40PM 64.5333 -92.5015 220° Southwest  Level Estimated
02:41PM 64.4363 -92.6890 220° Southwest  Level Estimated
02:42PM 64.3392 -92.8752 220° Southwest  Level Estimated
02:43PM 64.2418 -93.0601 220° Southwest  Level Estimated
02:44PM 64.1441 -93.2437 219° Southwest  Level Estimated
02:45PM 64.0463 -93.4260 219° Southwest  Level Estimated
02:46PM 63.9482 -93.6070 219° Southwest  Level Estimated
02:47PM 63.8499 -93.7868 219° Southwest  Level Estimated
02:48PM 63.7513 -93.9653 219° Southwest  Level Estimated
02:49PM 63.6526 -94.1425 219° Southwest  Level Estimated
02:50PM 63.5536 -94.3186 218° Southwest  Level Estimated
02:51PM 63.4544 -94.4934 218° Southwest  Level Estimated
02:52PM 63.3550 -94.6670 218° Southwest  Level Estimated
02:53PM 63.2554 -94.8394 218° Southwest  Level Estimated
02:54PM 63.1556 -95.0106 218° Southwest  Level Estimated
02:55PM 63.0556 -95.1807 218° Southwest  Level Estimated
02:56PM 62.9554 -95.3496 217° Southwest  Level Estimated
02:57PM 62.8549 -95.5173 217° Southwest  Level Estimated
02:58PM 62.7543 -95.6839 217° Southwest  Level Estimated
02:59PM 62.6535 -95.8493 217° Southwest  Level Estimated
03:00PM 62.5525 -96.0136 217° Southwest  Level Estimated
03:01PM 62.4513 -96.1769 217° Southwest  Level Estimated
03:02PM 62.3499 -96.3390 217° Southwest  Level Estimated
03:03PM 62.2483 -96.5000 216° Southwest  Level Estimated
03:04PM 62.1466 -96.6599 216° Southwest  Level Estimated
03:05PM 62.0446 -96.8188 216° Southwest  Level Estimated
03:06PM 61.9425 -96.9766 216° Southwest  Level Estimated
03:07PM 61.8402 -97.1333 216° Southwest  Level Estimated
03:08PM 61.7377 -97.2890 216° Southwest  Level Estimated
03:09PM 61.6351 -97.4437 216° Southwest  Level Estimated
03:10PM 61.5322 -97.5974 215° Southwest  Level Estimated
03:11PM 61.4292 -97.7500 215° Southwest  Level Estimated
03:12PM 61.3260 -97.9016 215° Southwest  Level Estimated
03:13PM 61.2227 -98.0523 215° Southwest  Level Estimated
03:14PM 61.1192 -98.2019 215° Southwest  Level Estimated
03:15PM 61.0155 -98.3506 215° Southwest  Level Estimated
03:16PM 60.9117 -98.4983 215° Southwest  Level Estimated
03:17PM 60.8077 -98.6450 215° Southwest  Level Estimated
03:18PM 60.7036 -98.7908 214° Southwest  Level Estimated
03:19PM 60.5993 -98.9356 214° Southwest  Level Estimated
03:20PM 60.4948 -99.0795 214° Southwest  Level Estimated
03:20PM 59.5333 -96.9333 214° Southwest 440 506 36,000  Level Edmonton Center
03:21PM 60.3902 -99.2225 214° Southwest  Level Estimated
03:21PM 59.4333 -97.0667 214° Southwest 430 495 36,000  Level Edmonton Center
03:22PM 60.2854 -99.3646 214° Southwest  Level Estimated
03:22PM 59.3333 -97.1833 211° Southwest 440 506 36,000  Level Edmonton Center
03:23PM 60.1805 -99.5058 214° Southwest  Level Estimated
03:23PM 59.2167 -97.3167 210° Southwest 430 495 36,000  Level Edmonton Center
03:24PM 60.0754 -99.6460 214° Southwest  Level Estimated
03:24PM 59.1333 -97.4333 216° Southwest 430 495 36,000  Level Edmonton Center
03:25PM 59.9702 -99.7854 214° Southwest  Level Estimated
03:25PM 59.0167 -97.6000 216° Southwest 440 506 36,000  Level Edmonton Center
03:26PM 58.9167 -97.7167 211° Southwest 440 506 36,000  Level Edmonton Center
03:27PM 58.8333 -97.8333 216° Southwest 440 506 36,000  Level Edmonton Center
03:28PM 58.7167 -97.9833 214° Southwest 430 495 36,000  Level Edmonton Center
03:29PM 58.6167 -98.1000 211° Southwest 440 506 36,000  Level Edmonton Center
03:30PM 58.5000 -98.2333 211° Southwest 430 495 36,000  Level Edmonton Center
03:31PM 58.4167 -98.3500 216° Southwest 430 495 36,000  Level Edmonton Center
03:32PM 58.3167 -98.4833 215° Southwest 440 506 36,000  Level Winnipeg Center
03:33PM 58.2167 -98.6333 218° Southwest 440 506 36,000  Level Winnipeg Center
03:34PM 58.1167 -98.7333 208° Southwest 440 506 36,000  Level Winnipeg Center
03:35PM 58.0167 -98.8500 212° Southwest 440 506 36,000  Level Winnipeg Center
03:36PM 57.9000 -99.0000 214° Southwest 440 506 36,000  Level Winnipeg Center
03:37PM 57.7833 -99.0667 197° South 430 495 36,000  Level Edmonton Center
03:38PM 57.6833 -99.1833 212° Southwest 430 495 36,000  Level Edmonton Center
03:39PM 57.5833 -99.3333 219° Southwest 440 506 36,000  Level Winnipeg Center
03:40PM 57.4833 -99.4500 212° Southwest 430 495 36,000  Level Winnipeg Center
03:41PM 57.3833 -99.5667 212° Southwest 430 495 36,000  Level Winnipeg Center
03:42PM 57.2833 -99.6833 212° Southwest 430 495 36,000  Level Winnipeg Center
03:43PM 57.1833 -99.8000 212° Southwest 430 495 36,000  Level Winnipeg Center
03:44PM 57.0667 -99.9167 209° Southwest 430 495 36,000  Level Winnipeg Center
03:45PM 56.9667 -100.0333 212° Southwest 430 495 36,000  Level Winnipeg Center
03:46PM 56.8667 -100.1167 204° Southwest 440 506 36,000  Level Winnipeg Center
03:47PM 56.7500 -100.2333 209° Southwest 430 495 36,000  Level Winnipeg Center
03:48PM 56.6500 -100.3167 205° Southwest 430 495 36,000  Level Winnipeg Center
03:49PM 56.5333 -100.4167 205° Southwest 440 506 36,000  Level Winnipeg Center
03:50PM 56.4167 -100.5000 202° Southwest 440 506 36,000  Level Winnipeg Center
03:51PM 56.3167 -100.6167 213° Southwest 440 506 36,000  Level Winnipeg Center
03:52PM 56.2000 -100.7167 206° Southwest 440 506 36,000  Level Winnipeg Center
03:53PM 56.1000 -100.8000 205° Southwest 440 506 36,000  Level Winnipeg Center
03:54PM 55.9833 -100.9167 209° Southwest 440 506 36,000  Level Winnipeg Center
03:55PM 55.8667 -100.9833 198° South 440 506 36,000  Level Winnipeg Center
03:56PM 55.7500 -101.1000 209° Southwest 440 506 36,000  Level Winnipeg Center
03:57PM 55.6500 -101.1833 205° Southwest 440 506 36,000  Level Winnipeg Center
03:58PM 55.5333 -101.2833 206° Southwest 440 506 36,000  Level Winnipeg Center
03:59PM 55.4167 -101.3833 206° Southwest 440 506 36,000  Level Winnipeg Center
04:00PM 55.3000 -101.4667 202° Southwest 440 506 36,000  Level Winnipeg Center
04:01PM 55.2000 -101.5667 210° Southwest 430 495 36,000  Level Winnipeg Center
04:02PM 55.1000 -101.6500 205° Southwest 440 506 36,000  Level Winnipeg Center
04:08PM 54.4960 -102.1330 205° Southwest 445 512 36,000  Level FlightAware
04:08PM 54.4200 -102.1930 205° Southwest 446 513 36,000  Level FlightAware
04:09PM 54.3570 -102.2430 205° Southwest 445 512 36,000  Level FlightAware
04:10PM 54.2630 -102.3170 205° Southwest 446 513 36,000  Level FlightAware
04:10PM 54.1800 -102.3820 205° Southwest 447 514 36,000  Level FlightAware
04:11PM 54.1120 -102.4340 204° Southwest 447 514 36,000  Level FlightAware
04:12PM 54.0090 -102.5140 205° Southwest 447 514 36,000  Level FlightAware
04:13PM 53.9250 -102.5790 205° Southwest 447 514 36,000  Level FlightAware
04:14PM 53.8010 -102.6740 204° Southwest 447 514 36,000  Level FlightAware
04:15PM 53.6990 -102.7520 204° Southwest 446 513 36,000  Level FlightAware
04:15PM 53.6040 -102.8250 205° Southwest 445 512 36,000  Level FlightAware
04:16PM 53.5300 -102.8800 204° Southwest 445 512 36,000  Level FlightAware
04:17PM 53.4550 -102.9370 204° Southwest 446 513 36,000  Level FlightAware
04:18PM 53.3750 -102.9960 204° Southwest 445 512 36,000  Level FlightAware
04:18PM 53.3110 -103.0440 204° Southwest 445 512 36,000  Level FlightAware
04:19PM 53.2470 -103.0910 204° Southwest 445 512 36,000  Level FlightAware
04:20PM 53.1830 -103.1390 204° Southwest 445 512 36,000  Level FlightAware
04:20PM 53.1030 -103.1980 204° Southwest 445 512 36,000  Level FlightAware
04:21PM 53.0390 -103.2460 204° Southwest 445 512 36,000  Level FlightAware
04:22PM 52.9750 -103.2930 204° Southwest 445 512 36,000  Level FlightAware
04:22PM 52.9120 -103.3400 204° Southwest 445 512 36,000  Level FlightAware
04:23PM 52.8480 -103.3870 204° Southwest 445 512 36,000  Level FlightAware
04:24PM 52.7680 -103.4460 204° Southwest 445 512 36,000  Level FlightAware
04:25PM 52.7040 -103.4930 204° Southwest 445 512 36,000  Level FlightAware
04:25PM 52.6400 -103.5400 204° Southwest 445 512 36,000  Level FlightAware
04:26PM 52.5760 -103.5870 204° Southwest 445 512 36,000  Level FlightAware
04:27PM 52.5120 -103.6340 204° Southwest 445 512 36,000  Level FlightAware
04:27PM 52.2667 -103.7833 204° Southwest 440 506 36,000  Level Edmonton Center
04:28PM 52.1500 -103.8833 208° Southwest 450 518 36,000  Level Winnipeg Center
04:29PM 52.0500 -103.9667 207° Southwest 450 518 36,000  Level Winnipeg Center
04:30PM 51.9333 -104.0500 204° Southwest 460 529 36,000  Level Winnipeg Center
04:31PM 51.8000 -104.1500 205° Southwest 460 529 36,000  Level Winnipeg Center
04:32PM 51.7000 -104.2167 202° Southwest 460 529 36,000  Level Winnipeg Center
04:33PM 51.5667 -104.3000 201° Southwest 460 529 36,000  Level Winnipeg Center
04:39PM 50.9100 -104.7300 201° Southwest 466 536 36,000  Level FlightAware
04:39PM 50.8360 -104.7790 203° Southwest 467 537 36,000  Level FlightAware
04:40PM 50.7370 -104.8440 203° Southwest 467 537 36,000  Level FlightAware
04:41PM 50.6580 -104.8960 203° Southwest 466 536 36,000  Level FlightAware
04:42PM 50.5930 -104.9400 203° Southwest 465 535 36,000  Level FlightAware
04:42PM 50.5160 -104.9950 204° Southwest 466 536 36,000  Level FlightAware
04:43PM 50.4230 -105.0590 204° Southwest 469 540 36,000  Level FlightAware
04:44PM 50.3270 -105.1230 203° Southwest 467 537 36,000  Level FlightAware
04:44PM 50.2660 -105.1640 203° Southwest 467 537 36,000  Level FlightAware
04:45PM 50.1820 -105.2200 203° Southwest 467 537 36,000  Level FlightAware
04:46PM 50.1140 -105.2650 203° Southwest 467 537 36,000  Level FlightAware
04:46PM 50.0470 -105.3090 203° Southwest 467 537 36,000  Level FlightAware
04:47PM 49.9790 -105.3540 203° Southwest 467 537 36,000  Level FlightAware
04:48PM 49.9110 -105.3990 203° Southwest 467 537 36,000  Level FlightAware
04:48PM 49.8440 -105.4430 203° Southwest 467 537 36,000  Level FlightAware
04:49PM 49.7590 -105.4990 203° Southwest 467 537 36,000  Level FlightAware
04:50PM 49.6920 -105.5430 203° Southwest 467 537 36,000  Level FlightAware
04:51PM 49.6240 -105.5880 203° Southwest 467 537 36,000  Level FlightAware
04:51PM 49.5560 -105.6320 203° Southwest 467 537 36,000  Level FlightAware
04:52PM 49.4720 -105.6870 203° Southwest 467 537 36,000  Level FlightAware
04:53PM 49.4040 -105.7310 203° Southwest 467 537 36,000  Level FlightAware
04:53PM 49.3370 -105.7750 203° Southwest 467 537 36,000  Level FlightAware
04:54PM 49.0667 -105.9667 203° Southwest 460 529 36,000  Level Winnipeg Center
04:55PM 49.0372 -105.9775 194° South 462 532 36,000  Level Salt Lake Center
04:56PM 48.9042 -106.0836 208° Southwest 456 525 36,000  Level Salt Lake Center
04:57PM 48.7986 -106.1769 210° Southwest 447 514 36,000  Level Salt Lake Center
04:58PM 48.6911 -106.2717 210° Southwest 447 514 36,000  Level Salt Lake Center
04:59PM 48.5819 -106.3647 209° Southwest 450 518 36,000  Level Salt Lake Center
05:00PM 48.4739 -106.4578 210° Southwest 451 519 36,000  Level Salt Lake Center
05:01PM 48.3644 -106.5514 210° Southwest 452 520 36,000  Level Salt Lake Center
05:02PM 48.2558 -106.6444 210° Southwest 454 522 36,000  Level Salt Lake Center
05:03PM 48.1464 -106.7389 210° Southwest 454 522 36,000  Level Salt Lake Center
05:04PM 48.0175 -106.8494 210° Southwest 451 519 36,000  Level Salt Lake Center
05:05PM 47.9064 -106.9433 210° Southwest 457 526 36,000  Level Salt Lake Center
05:06PM 47.7956 -107.0364 209° Southwest 459 528 36,000  Level Salt Lake Center
05:07PM 47.6842 -107.1275 209° Southwest 458 527 36,000  Level Salt Lake Center
05:08PM 47.5736 -107.2211 210° Southwest 458 527 36,000  Level Salt Lake Center
05:09PM 47.4597 -107.3144 209° Southwest 458 527 36,000  Level Salt Lake Center
05:10PM 47.3353 -107.4156 209° Southwest 458 527 36,000  Level Salt Lake Center
05:11PM 47.2294 -107.5025 209° Southwest 455 524 36,000  Level Salt Lake Center
05:12PM 47.1072 -107.6039 209° Southwest 452 520 36,000  Level Salt Lake Center
05:13PM 46.9994 -107.6892 208° Southwest 458 527 36,000  Level Salt Lake Center
05:14PM 46.8900 -107.7772 209° Southwest 466 536 36,000  Level Salt Lake Center
05:15PM 46.7647 -107.8781 209° Southwest 463 533 36,000  Level Salt Lake Center
05:16PM 46.6553 -107.9647 209° Southwest 466 536 36,000  Level Salt Lake Center
05:17PM 46.5283 -108.0622 208° Southwest 463 533 36,000  Level Salt Lake Center
05:18PM 46.4194 -108.1489 209° Southwest 465 535 36,000  Level Salt Lake Center
05:19PM 46.3108 -108.2344 209° Southwest 463 533 36,000  Level Salt Lake Center
05:20PM 46.1842 -108.3336 208° Southwest 464 534 36,000  Level Salt Lake Center
05:21PM 46.0756 -108.4192 209° Southwest 466 536 36,000  Level Salt Lake Center
05:22PM 45.9472 -108.5189 208° Southwest 468 539 36,000  Level Salt Lake Center
05:23PM 45.8372 -108.6044 208° Southwest 470 541 36,000  Level Salt Lake Center
05:24PM 45.7025 -108.6964 205° Southwest 480 552 36,000  Level Salt Lake Center
05:25PM 45.5883 -108.7708 205° Southwest 474 545 36,000  Level Salt Lake Center
05:26PM 45.4728 -108.8467 205° Southwest 481 554 36,000  Level Salt Lake Center
05:27PM 45.3389 -108.9358 205° Southwest 478 550 36,000  Level Salt Lake Center
05:29PM 45.2236 -109.0097 204° Southwest 477 549 36,000  Level Salt Lake Center
05:30PM 45.0900 -109.0961 205° Southwest 475 547 36,000  Level Salt Lake Center
05:31PM 44.9778 -109.1675 204° Southwest 467 537 36,000  Level Salt Lake Center
05:32PM 44.8406 -109.2544 204° Southwest 479 551 36,000  Level Salt Lake Center
05:33PM 44.7261 -109.3292 205° Southwest 477 549 36,000  Level Salt Lake Center
05:34PM 44.6111 -109.4003 204° Southwest 474 545 36,000  Level Salt Lake Center
05:35PM 44.4731 -109.4892 205° Southwest 477 549 36,000  Level Salt Lake Center
05:36PM 44.3569 -109.5614 204° Southwest 477 549 36,000  Level Salt Lake Center
05:37PM 44.2211 -109.6472 204° Southwest 477 549 36,000  Level Salt Lake Center
05:38PM 44.1031 -109.7206 204° Southwest 482 555 36,000  Level Salt Lake Center
05:39PM 43.9853 -109.7931 204° Southwest 482 555 36,000  Level Salt Lake Center
05:40PM 43.8494 -109.8758 204° Southwest 479 551 36,000  Level Salt Lake Center
05:41PM 43.7328 -109.9475 204° Southwest 478 550 36,000  Level Salt Lake Center
05:42PM 43.5967 -110.0319 204° Southwest 479 551 36,000  Level Salt Lake Center
05:43PM 43.4894 -110.0961 203° Southwest 476 548 36,000  Level Salt Lake Center
05:44PM 43.3544 -110.1781 204° Southwest 476 548 36,000  Level Salt Lake Center
05:45PM 43.2258 -110.2550 204° Southwest 483 556 36,000  Level Salt Lake Center
05:46PM 43.1075 -110.3286 204° Southwest 487 560 36,000  Level Salt Lake Center
05:47PM 42.9714 -110.4081 203° Southwest 478 550 36,000  Level Salt Lake Center
05:48PM 42.8453 -110.4836 204° Southwest 481 554 36,000  Level Salt Lake Center
05:49PM 42.7286 -110.5528 204° Southwest 480 552 36,000  Level Salt Lake Center
05:54PM 42.0730 -110.9330 204° Southwest 476 548 36,000  Level FlightAware
05:55PM 41.9900 -110.9810 203° Southwest 476 548 36,000  Level FlightAware
05:56PM 41.8900 -111.0390 203° Southwest 476 548 36,000  Level FlightAware
05:56PM 41.8160 -111.0810 203° Southwest 476 548 36,000  Level FlightAware
05:57PM 41.7260 -111.1320 203° Southwest 475 547 36,000  Level FlightAware
05:59PM 41.5520 -111.2320 203° Southwest 477 549 36,000  Level FlightAware
06:04PM 40.8350 -111.6330 203° Southwest 489 563 36,000  Level FlightAware
06:09PM 40.2200 -111.9720 203° Southwest 491 565 36,000  Level FlightAware
06:10PM 40.1200 -112.0320 205° Southwest 490 564 36,000  Level FlightAware
06:11PM 40.0380 -112.0800 204° Southwest 490 564 36,000  Level FlightAware
06:12PM 39.9270 -112.1450 204° Southwest 490 564 36,000  Level FlightAware
06:12PM 39.8560 -112.1860 204° Southwest 491 565 36,000  Level FlightAware
06:13PM 39.7720 -112.2350 204° Southwest 491 565 36,000  Level FlightAware
06:14PM 39.7010 -112.2760 204° Southwest 491 565 36,000  Level FlightAware
06:14PM 39.6130 -112.3270 204° Southwest 491 565 36,000  Level FlightAware
06:15PM 39.5430 -112.3680 204° Southwest 491 565 36,000  Level FlightAware
06:16PM 39.4720 -112.4080 204° Southwest 491 565 36,000  Level FlightAware
06:16PM 39.4020 -112.4490 204° Southwest 491 565 36,000  Level FlightAware
06:17PM 39.3130 -112.5000 204° Southwest 491 565 36,000  Level FlightAware
06:18PM 39.2430 -112.5400 204° Southwest 491 565 36,000  Level FlightAware
06:19PM 39.1720 -112.5810 204° Southwest 491 565 36,000  Level FlightAware
06:19PM 39.1020 -112.6210 204° Southwest 491 565 36,000  Level FlightAware
06:20PM 39.0310 -112.6620 204° Southwest 491 565 36,000  Level FlightAware
06:21PM 38.9430 -112.7120 204° Southwest 491 565 36,000  Level FlightAware
06:21PM 38.8720 -112.7530 204° Southwest 491 565 36,000  Level FlightAware
06:22PM 38.8020 -112.7930 204° Southwest 491 565 36,000  Level FlightAware
06:23PM 38.5900 -113.1053 204° Southwest 499 574 36,000  Level Salt Lake Center
06:24PM 38.4681 -113.1894 208° Southwest 500 575 36,000  Level Salt Lake Center
06:25PM 38.3461 -113.2736 208° Southwest 500 575 36,000  Level Salt Lake Center
06:26PM 38.2253 -113.3575 209° Southwest 500 575 36,000  Level Salt Lake Center
06:27PM 38.1042 -113.4431 209° Southwest 501 577 36,000  Level Salt Lake Center
06:33PM 37.3430 -113.9660 209° Southwest 489 563 36,000  Level FlightAware
06:34PM 37.2510 -114.0280 208° Southwest 489 563 36,000  Level FlightAware
06:34PM 37.1590 -114.0910 209° Southwest 487 560 36,000  Level FlightAware
06:35PM 37.0810 -114.1430 208° Southwest 487 560 36,000  Level FlightAware
06:36PM 37.0010 -114.1970 208° Southwest 490 564 36,000  Level FlightAware
06:37PM 36.9120 -114.2570 208° Southwest 493 567 36,000  Level FlightAware
06:37PM 36.8320 -114.3110 208° Southwest 493 567 36,000  Level FlightAware
06:38PM 36.7400 -114.3720 208° Southwest 493 567 36,000  Level FlightAware
06:39PM 36.6600 -114.4250 208° Southwest 491 565 36,000  Level FlightAware
06:39PM 36.5780 -114.4800 208° Southwest 493 567 36,000  Level FlightAware
06:40PM 36.4910 -114.5380 208° Southwest 492 566 36,000  Level FlightAware
06:41PM 36.4100 -114.5920 208° Southwest 491 565 36,000  Level FlightAware
06:41PM 36.3160 -114.6530 208° Southwest 489 563 36,000  Level FlightAware
06:42PM 36.2380 -114.7050 208° Southwest 489 563 36,000  Level FlightAware
06:43PM 36.1580 -114.7580 208° Southwest 484 557 36,000 -240 Level FlightAware
06:44PM 36.0720 -114.8140 208° Southwest 480 552 35,700 -1,020 Descending FlightAware
06:44PM 35.9940 -114.8720 211° Southwest 485 558 34,600 -1,320 Descending FlightAware
06:45PM 35.9320 -114.9480 225° Southwest 480 552 34,000 -480 Descending FlightAware
06:46PM 35.8630 -115.0430 228° Southwest 480 552 34,000  Level FlightAware
06:46PM 35.8050 -115.1240 229° Southwest 480 552 34,000  Level FlightAware
06:47PM 35.7390 -115.2140 228° Southwest 482 555 34,000  Level FlightAware
06:48PM 35.6770 -115.2960 227° Southwest 484 557 34,000  Level FlightAware
06:48PM 35.6180 -115.3760 228° Southwest 481 554 34,000  Level FlightAware
06:49PM 35.5500 -115.4670 227° Southwest 478 550 34,000  Level FlightAware
06:50PM 35.4900 -115.5480 228° Southwest 480 552 34,000  Level FlightAware
06:50PM 35.4290 -115.6290 227° Southwest 479 551 34,000  Level FlightAware
06:51PM 35.3640 -115.7160 228° Southwest 477 549 34,000  Level FlightAware
06:52PM 35.3050 -115.7950 228° Southwest 474 545 34,000  Level FlightAware
06:53PM 35.2380 -115.8830 227° Southwest 472 543 34,000 -180 Level FlightAware
06:53PM 35.1770 -115.9640 227° Southwest 474 545 33,800 -480 Descending FlightAware
06:54PM 35.1170 -116.0430 227° Southwest 481 554 33,400 -480 Descending FlightAware
06:55PM 35.0490 -116.1330 227° Southwest 479 551 33,200 -600 Descending FlightAware
06:55PM 34.9920 -116.2090 228° Southwest 481 554 32,600 -1,020 Descending FlightAware
06:56PM 34.9200 -116.3020 227° Southwest 484 557 31,800 -1,140 Descending FlightAware
06:57PM 34.8590 -116.3820 227° Southwest 490 564 31,000 -780 Descending FlightAware
06:58PM 34.7900 -116.4660 225° Southwest 482 555 30,700 -720 Descending FlightAware
06:58PM 34.7200 -116.5360 219° Southwest 467 537 30,000 -1,440 Descending FlightAware
06:59PM 34.6550 -116.5970 218° Southwest 440 506 28,800 -1,980 Descending FlightAware
07:00PM 34.5820 -116.6660 218° Southwest 432 497 27,200 -2,100 Descending FlightAware
07:00PM 34.5190 -116.7250 218° Southwest 426 490 25,900 -1,920 Descending FlightAware
07:01PM 34.4570 -116.7820 217° Southwest 419 482 24,700 -1,800 Descending FlightAware
07:02PM 34.3900 -116.8460 218° Southwest 412 474 23,400 -1,860 Descending FlightAware
07:02PM 34.3290 -116.9020 217° Southwest 408 470 22,100 -1,920 Descending FlightAware
07:03PM 34.2610 -116.9660 218° Southwest 403 464 20,700 -1,920 Descending FlightAware
07:04PM 34.2020 -117.0210 218° Southwest 400 460 19,400 -1,920 Descending FlightAware
07:05PM 34.1390 -117.0790 217° Southwest 397 457 18,000 -1,860 Descending FlightAware
07:05PM 34.0920 -117.1450 229° Southwest 386 444 16,800 -1,680 Descending FlightAware
07:06PM 34.0590 -117.2200 242° Southwest 376 433 15,800 -1,680 Descending FlightAware
07:07PM 34.0410 -117.3150 257° West 364 419 14,500 -1,680 Descending FlightAware
07:07PM 34.0340 -117.3920 264° West 356 410 13,500 -1,380 Descending FlightAware
07:08PM 34.0300 -117.4690 266° West 320 368 12,700 -1,500 Descending FlightAware
07:09PM 34.0330 -117.5440 273° West 309 356 11,400 -1,500 Descending FlightAware
07:09PM 34.0310 -117.6120 268° West 304 350 10,600 -1,020 Descending FlightAware
07:10PM 34.0230 -117.6910 263° West 298 343 10,000 -900 Descending FlightAware
07:11PM 34.0190 -117.7280 263° West 294 338 9,600 -1,200 Descending FlightAware
07:11PM 34.0140 -117.7800 263° West 293 337 8,900 -1,320 Descending FlightAware
07:11PM 34.0100 -117.8170 263° West 288 331 8,400 -1,320 Descending FlightAware
07:12PM 34.0060 -117.8650 264° West 287 330 7,700 -1,320 Descending FlightAware
07:12PM 34.0010 -117.9130 263° West 284 327 7,100 -1,200 Descending FlightAware
07:13PM 33.9990 -117.9380 264° West 279 321 6,800 -1,080 Descending FlightAware
07:13PM 33.9950 -117.9750 263° West 273 314 6,400 -1,140 Descending FlightAware
07:14PM 33.9910 -118.0180 264° West 260 299 5,800 -1,200 Descending FlightAware
07:14PM 33.9870 -118.0550 263° West 246 283 5,300 -1,320 Descending FlightAware
07:15PM 33.9830 -118.0960 263° West 241 277 4,600 -1,200 Descending FlightAware
07:15PM 33.9790 -118.1350 263° West 237 273 4,100 -1,020 Descending FlightAware
07:15PM 33.9760 -118.1670 264° West 235 270 3,700 -1,020 Descending FlightAware
07:16PM 33.9720 -118.2030 262° West 235 270 3,200 -1,080 Descending FlightAware
07:16PM 33.9700 -118.2260 264° West 231 266 2,900 -1,200 Descending FlightAware
07:17PM 33.9670 -118.2550 263° West 219 252 2,400 -1,200 Descending FlightAware
07:17PM 33.9640 -118.2830 263° West 199 229 1,900 -1,140 Descending FlightAware
07:18PM 33.9610 -118.3160 264° West 171 197 1,400 -960 Descending FlightAware
07:18PM 33.9600 -118.3280 264° West 166 191 1,200 -300 Descending FlightAware
07:18PM 33.9570 -118.3490 260° West 161 185 1,200 -660 Level FlightAware
07:19PM 33.9500 -118.3667 260° West 140 161 600 -780 Descending Southern California TRACON
07:20PM 33.9511 -118.4181 272° West 154 177 100 -540 Descending Los Angeles Center
07:22PM 33.9425 -118.4081 140° Southeast  Level Estimated